createdAt,value
2023-10-16T00:02:27.348Z,25.20
2023-10-16T00:04:56.361Z,25.30
2023-10-16T00:07:24.126Z,25.30
2023-10-16T00:09:55.938Z,25.30
2023-10-16T00:12:24.301Z,25.40
2023-10-16T00:14:52.324Z,25.40
2023-10-16T00:17:23.858Z,25.40
2023-10-16T00:19:55.689Z,25.40
2023-10-16T00:22:23.594Z,25.50
2023-10-16T00:24:52.159Z,25.50
2023-10-16T00:27:20.157Z,25.50
2023-10-16T00:35:18.806Z,25.60
2023-10-16T00:37:47.356Z,25.80
2023-10-16T00:40:21.847Z,25.80
2023-10-16T00:42:50.849Z,25.80
2023-10-16T00:45:20.977Z,25.90
2023-10-16T00:47:52.147Z,26.00
2023-10-16T00:50:20.028Z,26.00
2023-10-16T00:52:47.895Z,26.10
2023-10-16T00:55:16.030Z,26.10
2023-10-16T01:06:00.714Z,26.30
2023-10-16T01:08:28.670Z,26.40
2023-10-16T01:10:59.297Z,26.50
2023-10-16T01:13:31.107Z,26.50
2023-10-16T01:15:59.450Z,26.50
2023-10-16T01:18:27.726Z,26.60
2023-10-16T01:20:58.515Z,26.60
2023-10-16T01:26:02.688Z,26.70
2023-10-16T01:42:14.044Z,27.20
2023-10-16T01:50:07.705Z,27.40
2023-10-16T01:52:35.628Z,27.40
2023-10-16T01:57:52.260Z,27.50
2023-10-16T02:00:26.942Z,27.60
2023-10-16T02:02:55.420Z,27.70
2023-10-16T02:05:26.205Z,27.80
2023-10-16T02:07:57.724Z,27.80
2023-10-16T02:10:26.421Z,27.80
2023-10-16T02:12:54.536Z,27.90
2023-10-16T02:15:23.045Z,27.90
2023-10-16T02:17:51.060Z,28.00
2023-10-16T02:20:21.317Z,28.00
2023-10-16T02:22:49.399Z,28.00
2023-10-16T02:25:19.614Z,28.10
2023-10-16T02:27:51.819Z,28.10
2023-10-16T02:30:30.254Z,28.10
2023-10-16T02:33:15.186Z,28.20
2023-10-16T02:35:54.730Z,28.20
2023-10-16T02:41:08.957Z,28.30
2023-10-16T02:43:43.205Z,28.40
2023-10-16T02:46:13.029Z,28.40
2023-10-16T02:48:44.807Z,28.40
2023-10-16T02:51:13.434Z,28.50
2023-10-16T02:53:45.544Z,28.40
2023-10-16T02:56:17.248Z,28.50
2023-10-16T02:58:45.492Z,28.50
2023-10-16T03:01:20.617Z,28.60
2023-10-16T03:03:48.714Z,28.60
2023-10-16T03:06:21.203Z,28.60
2023-10-16T03:08:56.955Z,28.70
2023-10-16T03:11:28.007Z,28.70
2023-10-16T03:13:58.292Z,28.70
2023-10-16T03:16:28.619Z,28.80
2023-10-16T03:19:10.973Z,28.80
2023-10-16T03:21:41.873Z,28.90
2023-10-16T03:24:10.929Z,29.10
2023-10-16T03:26:44.041Z,29.10
2023-10-16T03:29:12.853Z,29.20
2023-10-16T03:31:41.670Z,29.20
2023-10-16T03:34:13.291Z,29.30
2023-10-16T03:36:43.922Z,29.30
2023-10-16T03:39:13.427Z,29.30
2023-10-16T03:41:41.253Z,29.30
2023-10-16T03:44:15.884Z,29.30
2023-10-16T03:46:48.773Z,29.40
2023-10-16T03:49:16.892Z,29.40
2023-10-16T03:51:48.252Z,29.40
2023-10-16T03:56:51.776Z,29.50
2023-10-16T03:59:19.664Z,29.50
2023-10-16T04:01:48.884Z,29.60
2023-10-16T04:04:17.100Z,29.60
2023-10-16T04:06:45.618Z,29.60
2023-10-16T04:09:16.478Z,29.60
2023-10-16T04:11:51.075Z,29.70
2023-10-16T04:14:19.547Z,29.70
2023-10-16T04:16:56.945Z,29.80
2023-10-16T04:19:27.701Z,29.90
2023-10-16T04:21:58.856Z,30.00
2023-10-16T04:24:26.960Z,30.10
2023-10-16T04:27:15.101Z,30.10
2023-10-16T04:30:13.529Z,30.10
2023-10-16T04:33:15.716Z,30.20
2023-10-16T04:35:43.785Z,30.20
2023-10-16T04:38:34.622Z,30.20
2023-10-16T04:41:21.143Z,30.20
2023-10-16T04:44:07.215Z,30.30
2023-10-16T04:46:55.112Z,30.30
2023-10-16T04:49:30.569Z,30.40
2023-10-16T04:52:09.049Z,30.40
2023-10-16T04:54:59.926Z,30.50
2023-10-16T04:57:29.527Z,30.50
2023-10-16T05:00:14.343Z,30.50
2023-10-16T05:02:45.916Z,30.50
2023-10-16T05:05:13.876Z,30.50
2023-10-16T05:07:47.888Z,30.50
2023-10-16T05:10:42.027Z,30.50
2023-10-16T05:13:25.821Z,30.50
2023-10-16T05:16:13.974Z,30.40
2023-10-16T05:18:45.486Z,30.40
2023-10-16T05:21:31.865Z,30.40
2023-10-16T05:24:20.353Z,30.40
2023-10-16T05:27:06.883Z,30.40
2023-10-16T05:29:53.212Z,30.40
2023-10-16T05:32:39.232Z,30.50
2023-10-16T05:35:25.561Z,30.50
2023-10-16T05:38:11.714Z,30.60
2023-10-16T05:40:58.187Z,30.70
2023-10-16T05:43:44.572Z,30.80
2023-10-16T05:46:30.739Z,30.90
2023-10-16T05:49:17.618Z,31.00
2023-10-16T05:52:03.574Z,31.10
2023-10-16T05:54:51.078Z,31.10
2023-10-16T05:57:37.358Z,31.10
2023-10-16T06:00:34.637Z,31.00
2023-10-16T06:03:21.028Z,31.00
2023-10-16T06:06:07.492Z,31.10
2023-10-16T06:08:54.176Z,31.10
2023-10-16T06:11:40.486Z,31.00
2023-10-16T06:14:14.255Z,31.00
2023-10-16T06:16:42.807Z,31.00
2023-10-16T06:19:19.263Z,31.00
2023-10-16T06:21:50.904Z,31.00
2023-10-16T06:24:37.554Z,31.00
2023-10-16T06:27:12.928Z,31.00
2023-10-16T06:29:53.990Z,31.10
2023-10-16T06:32:23.605Z,31.10
2023-10-16T06:35:07.482Z,31.20
2023-10-16T06:37:35.577Z,31.20
2023-10-16T06:40:06.548Z,31.20
2023-10-16T06:42:34.509Z,31.10
2023-10-16T06:45:09.598Z,31.10
2023-10-16T06:47:38.654Z,31.00
2023-10-16T06:50:25.973Z,30.90
2023-10-16T06:52:54.723Z,30.90
2023-10-16T06:55:26.749Z,31.00
2023-10-16T06:57:55.151Z,31.00
2023-10-16T07:00:29.655Z,31.00
2023-10-16T07:02:58.723Z,31.10
2023-10-16T07:05:44.273Z,31.10
2023-10-16T07:08:20.402Z,31.10
2023-10-16T07:10:54.185Z,31.10
2023-10-16T07:13:30.169Z,31.10
2023-10-16T07:16:01.554Z,31.00
2023-10-16T07:18:33.293Z,31.00
2023-10-16T07:21:01.624Z,31.10
2023-10-16T07:23:38.950Z,31.10
2023-10-16T07:26:09.440Z,31.10
2023-10-16T07:28:37.998Z,31.10
2023-10-16T07:31:07.206Z,31.10
2023-10-16T07:33:38.831Z,31.10
2023-10-16T07:36:13.743Z,31.10
2023-10-16T07:38:43.414Z,31.10
2023-10-16T07:41:13.921Z,31.10
2023-10-16T07:43:47.619Z,31.10
2023-10-16T07:46:16.485Z,31.10
2023-10-16T07:48:56.208Z,31.20
2023-10-16T07:51:29.486Z,31.10
2023-10-16T07:54:01.938Z,31.10
2023-10-16T07:59:22.230Z,31.20
2023-10-16T08:02:10.144Z,31.10
2023-10-16T08:04:38.473Z,31.00
2023-10-16T08:07:06.847Z,31.00
2023-10-16T08:09:35.939Z,30.90
2023-10-16T08:12:36.287Z,30.90
2023-10-16T08:15:25.366Z,30.90
2023-10-16T08:17:54.172Z,30.90
2023-10-16T08:20:31.468Z,31.00
2023-10-16T08:23:07.701Z,30.90
2023-10-16T08:25:36.680Z,30.90
2023-10-16T08:28:25.631Z,30.80
2023-10-16T08:31:15.566Z,30.90
2023-10-16T08:33:43.843Z,30.90
2023-10-16T08:36:22.964Z,30.90
2023-10-16T08:38:56.165Z,30.90
2023-10-16T08:41:32.921Z,30.80
2023-10-16T08:44:08.587Z,30.80
2023-10-16T08:46:47.132Z,30.70
2023-10-16T08:49:47.958Z,30.70
2023-10-16T08:52:26.990Z,30.70
2023-10-16T08:54:55.101Z,30.60
2023-10-16T08:57:27.125Z,30.60
2023-10-16T09:00:08.442Z,30.60
2023-10-16T09:02:38.022Z,30.60
2023-10-16T09:05:09.636Z,30.60
2023-10-16T09:07:41.445Z,30.60
2023-10-16T09:10:11.729Z,30.60
2023-10-16T09:12:47.435Z,30.70
2023-10-16T09:15:16.074Z,30.70
2023-10-16T09:17:44.651Z,30.70
2023-10-16T09:20:15.866Z,30.70
2023-10-16T09:25:44.832Z,30.70
2023-10-16T09:28:22.161Z,30.70
2023-10-16T09:31:04.907Z,30.60
2023-10-16T09:33:37.210Z,30.60
2023-10-16T09:36:19.192Z,30.60
2023-10-16T09:38:49.365Z,30.60
2023-10-16T09:41:29.364Z,30.60
2023-10-16T09:44:17.042Z,30.50
2023-10-16T09:46:51.062Z,30.50
2023-10-16T09:49:30.316Z,30.50
2023-10-16T09:52:06.848Z,30.50
2023-10-16T09:54:37.581Z,30.50
2023-10-16T09:57:09.456Z,30.40
2023-10-16T09:59:41.341Z,30.40
2023-10-16T10:02:18.457Z,30.40
2023-10-16T10:05:10.717Z,30.40
2023-10-16T10:07:50.500Z,30.40
2023-10-16T10:10:34.812Z,30.30
2023-10-16T10:13:17.229Z,30.30
2023-10-16T10:15:47.106Z,30.20
2023-10-16T10:18:34.336Z,30.20
2023-10-16T10:21:04.567Z,30.20
2023-10-16T10:23:33.900Z,30.10
2023-10-16T10:26:08.850Z,30.10
2023-10-16T10:28:42.879Z,30.10
2023-10-16T10:31:13.138Z,30.10
2023-10-16T10:33:53.989Z,30.00
2023-10-16T10:36:36.799Z,30.00
2023-10-16T10:39:41.046Z,29.90
2023-10-16T10:42:18.123Z,29.90
2023-10-16T10:45:19.856Z,29.90
2023-10-16T10:47:48.100Z,29.80
2023-10-16T10:50:15.982Z,29.80
2023-10-16T10:52:45.337Z,29.70
2023-10-16T10:55:27.170Z,29.70
2023-10-16T10:58:13.697Z,29.70
2023-10-16T11:00:51.756Z,29.70
2023-10-16T11:03:34.932Z,29.60
2023-10-16T11:06:02.838Z,29.60
2023-10-16T11:08:36.506Z,29.60
2023-10-16T11:11:06.522Z,29.60
2023-10-16T11:13:35.248Z,29.60
2023-10-16T11:16:04.241Z,29.50
2023-10-16T11:18:32.591Z,29.50
2023-10-16T11:21:06.409Z,29.50
2023-10-16T11:23:40.356Z,29.50
2023-10-16T11:26:14.613Z,29.40
2023-10-16T11:28:50.869Z,29.40
2023-10-16T11:31:20.638Z,29.30
2023-10-16T11:34:07.030Z,29.30
2023-10-16T11:36:44.409Z,29.30
2023-10-16T11:39:21.877Z,29.20
2023-10-16T11:41:51.634Z,29.20
2023-10-16T11:44:20.993Z,29.20
2023-10-16T11:47:03.161Z,29.20
2023-10-16T11:49:41.391Z,29.20
2023-10-16T11:52:29.806Z,29.20
2023-10-16T11:54:59.006Z,29.10
2023-10-16T11:57:34.239Z,29.10
2023-10-16T12:00:21.640Z,29.10
2023-10-16T12:02:51.818Z,29.10
2023-10-16T12:05:20.644Z,29.10
2023-10-16T12:07:49.698Z,29.10
2023-10-16T12:10:19.315Z,29.10
2023-10-16T12:12:47.209Z,29.10
2023-10-16T12:15:15.050Z,29.10
2023-10-16T12:17:46.430Z,29.10
2023-10-16T12:20:16.946Z,29.00
2023-10-16T12:22:45.679Z,29.00
2023-10-16T12:25:13.496Z,29.00
2023-10-16T12:27:42.217Z,29.00
2023-10-16T12:30:15.606Z,28.90
2023-10-16T12:32:44.289Z,28.90
2023-10-16T12:35:13.645Z,28.90
2023-10-16T12:37:42.280Z,28.80
2023-10-16T12:40:48.964Z,28.80
2023-10-16T12:43:17.914Z,28.80
2023-10-16T12:45:45.627Z,28.70
2023-10-16T12:48:14.390Z,28.80
2023-10-16T12:50:45.254Z,28.70
2023-10-16T12:53:21.777Z,28.70
2023-10-16T12:56:00.413Z,28.70
2023-10-16T12:58:29.612Z,28.70
2023-10-16T13:00:59.678Z,28.70
2023-10-16T13:03:27.565Z,28.70
2023-10-16T13:05:55.358Z,28.70
2023-10-16T13:08:23.503Z,28.70
2023-10-16T13:10:53.346Z,28.70
2023-10-16T13:13:23.801Z,28.70
2023-10-16T13:15:56.477Z,28.70
2023-10-16T13:18:30.375Z,28.70
2023-10-16T13:21:15.302Z,28.70
2023-10-16T13:23:46.778Z,28.70
2023-10-16T13:26:16.593Z,28.70
2023-10-16T13:28:44.998Z,28.70
2023-10-16T13:31:12.950Z,28.60
2023-10-16T13:33:44.392Z,28.60
2023-10-16T13:36:13.492Z,28.60
2023-10-16T13:38:41.461Z,28.60
2023-10-16T13:41:19.646Z,28.60
2023-10-16T13:43:49.241Z,28.60
2023-10-16T13:46:17.226Z,28.60
2023-10-16T13:48:47.726Z,28.60
2023-10-16T13:51:17.757Z,28.60
2023-10-16T13:53:47.927Z,28.60
2023-10-16T13:56:18.848Z,28.60
2023-10-16T13:58:48.272Z,28.60
2023-10-16T14:01:16.129Z,28.60
2023-10-16T14:03:44.513Z,28.60
2023-10-16T14:06:16.119Z,28.60
2023-10-16T14:08:44.156Z,28.60
2023-10-16T14:11:15.853Z,28.50
2023-10-16T14:13:43.665Z,28.50
2023-10-16T14:16:13.154Z,28.50
2023-10-16T14:18:45.102Z,28.50
2023-10-16T14:21:14.160Z,28.50
2023-10-16T14:23:43.215Z,28.40
2023-10-16T14:26:26.622Z,28.40
2023-10-16T14:29:01.197Z,28.40
2023-10-16T14:31:30.262Z,28.40
2023-10-16T14:34:00.231Z,28.30
2023-10-16T14:36:28.376Z,28.30
2023-10-16T14:38:57.079Z,28.30
2023-10-16T14:41:25.093Z,28.30
2023-10-16T14:43:56.192Z,28.20
2023-10-16T14:46:27.237Z,28.20
2023-10-16T14:48:56.362Z,28.20
2023-10-16T14:51:24.219Z,28.20
2023-10-16T14:53:55.105Z,28.10
2023-10-16T14:56:23.997Z,28.10
2023-10-16T15:01:23.010Z,28.00
2023-10-16T15:03:56.642Z,28.00
2023-10-16T15:06:24.506Z,28.00
2023-10-16T15:08:55.257Z,27.90
2023-10-16T15:11:23.366Z,27.90
2023-10-16T15:13:51.206Z,27.90
2023-10-16T15:16:19.030Z,27.80
2023-10-16T15:18:47.572Z,27.80
2023-10-16T15:21:15.504Z,27.80
2023-10-16T15:23:44.368Z,27.80
2023-10-16T15:26:12.162Z,27.80
2023-10-16T15:31:14.560Z,27.80
2023-10-16T15:33:45.304Z,27.80
2023-10-16T15:36:31.308Z,27.80
2023-10-16T15:38:59.068Z,27.90
2023-10-16T15:41:28.977Z,27.90
2023-10-16T15:43:57.799Z,27.90
2023-10-16T15:46:31.145Z,27.90
2023-10-16T15:49:01.242Z,27.90
2023-10-16T15:51:32.125Z,27.90
2023-10-16T15:54:00.417Z,27.80
2023-10-16T15:56:29.307Z,27.80
2023-10-16T15:58:58.127Z,27.80
2023-10-16T16:01:29.572Z,27.80
2023-10-16T16:04:04.176Z,27.80
2023-10-16T16:06:34.921Z,27.80
2023-10-16T16:09:05.648Z,27.80
2023-10-16T16:11:33.657Z,27.80
2023-10-16T16:14:01.430Z,27.80
2023-10-16T16:16:30.152Z,27.80
2023-10-16T16:19:00.410Z,27.70
2023-10-16T16:21:28.733Z,27.70
2023-10-16T16:23:56.670Z,27.70
2023-10-16T16:26:24.405Z,27.60
2023-10-16T16:28:52.356Z,27.60
2023-10-16T16:31:21.938Z,27.50
2023-10-16T16:33:52.831Z,27.50
2023-10-16T16:36:22.859Z,27.50
2023-10-16T16:38:56.963Z,27.40
2023-10-16T16:41:26.663Z,27.40
2023-10-16T16:43:55.872Z,27.40
2023-10-16T16:46:25.141Z,27.40
2023-10-16T16:48:52.956Z,27.30
2023-10-16T16:51:20.774Z,27.30
2023-10-16T16:53:51.740Z,27.30
2023-10-16T16:56:20.242Z,27.30
2023-10-16T16:58:48.016Z,27.30
2023-10-16T17:01:16.560Z,27.30
2023-10-16T17:03:44.494Z,27.30
2023-10-16T17:06:12.948Z,27.30
2023-10-16T17:08:41.063Z,27.30
2023-10-16T17:11:12.164Z,27.30
2023-10-16T17:13:40.288Z,27.30
2023-10-16T17:16:10.184Z,27.30
2023-10-16T17:18:38.979Z,27.20
2023-10-16T17:21:10.529Z,27.20
2023-10-16T17:23:40.060Z,27.20
2023-10-16T17:26:10.786Z,27.20
2023-10-16T17:28:38.947Z,27.20
2023-10-16T17:31:07.628Z,27.20
2023-10-16T17:33:36.458Z,27.30
2023-10-16T17:36:05.314Z,27.30
2023-10-16T17:38:34.098Z,27.30
2023-10-16T17:41:03.626Z,27.30
2023-10-16T17:43:32.135Z,27.30
2023-10-16T17:46:00.135Z,27.20
2023-10-16T17:48:28.272Z,27.20
2023-10-16T17:50:57.195Z,27.20
2023-10-16T17:53:26.793Z,27.20
2023-10-16T17:55:56.557Z,27.20
2023-10-16T17:58:27.079Z,27.20
2023-10-16T18:00:57.172Z,27.20
2023-10-16T18:03:35.270Z,27.20
2023-10-16T18:06:04.719Z,27.20
2023-10-16T18:08:33.422Z,27.10
2023-10-16T18:11:01.813Z,27.10
2023-10-16T18:13:29.719Z,27.10
2023-10-16T18:15:58.795Z,27.00
2023-10-16T18:18:26.776Z,27.00
2023-10-16T18:20:54.637Z,27.00
2023-10-16T18:23:23.277Z,27.00
2023-10-16T18:25:51.557Z,26.90
2023-10-16T18:28:19.684Z,26.90
2023-10-16T18:30:48.623Z,26.90
2023-10-16T18:33:16.708Z,26.90
2023-10-16T18:35:45.504Z,26.90
2023-10-16T18:38:13.543Z,26.90
2023-10-16T18:40:46.916Z,26.90
2023-10-16T18:43:16.176Z,26.90
2023-10-16T18:45:47.312Z,26.80
2023-10-16T18:48:19.888Z,26.80
2023-10-16T18:50:47.797Z,26.80
2023-10-16T18:53:16.918Z,26.80
2023-10-16T18:55:44.700Z,26.80
2023-10-16T18:58:12.408Z,26.80
2023-10-16T19:00:41.243Z,26.70
2023-10-16T19:03:09.917Z,26.70
2023-10-16T19:05:38.017Z,26.70
2023-10-16T19:08:07.415Z,26.70
2023-10-16T19:10:36.506Z,26.70
2023-10-16T19:13:05.545Z,26.60
2023-10-16T19:15:34.767Z,26.60
2023-10-16T19:18:02.796Z,26.60
2023-10-16T19:20:30.968Z,26.50
2023-10-16T19:22:59.807Z,26.60
2023-10-16T19:25:28.635Z,26.50
2023-10-16T19:27:56.318Z,26.50
2023-10-16T19:30:25.175Z,26.50
2023-10-16T19:32:56.629Z,26.40
2023-10-16T19:35:24.566Z,26.40
2023-10-16T19:37:53.046Z,26.40
2023-10-16T19:40:24.401Z,26.40
2023-10-16T19:42:53.175Z,26.40
2023-10-16T19:45:22.198Z,26.40
2023-10-16T19:47:53.955Z,26.40
2023-10-16T19:50:21.970Z,26.40
2023-10-16T19:52:50.356Z,26.30
2023-10-16T19:55:22.587Z,26.30
2023-10-16T19:57:54.098Z,26.30
2023-10-16T20:00:30.574Z,26.20
2023-10-16T20:02:58.436Z,26.20
2023-10-16T20:05:27.498Z,26.20
2023-10-16T20:07:59.405Z,26.20
2023-10-16T20:10:29.984Z,26.20
2023-10-16T20:12:58.743Z,26.20
2023-10-16T20:15:30.585Z,26.20
2023-10-16T20:17:58.639Z,26.10
2023-10-16T20:20:29.056Z,26.10
2023-10-16T20:23:00.675Z,26.10
2023-10-16T20:25:34.645Z,26.10
2023-10-16T20:28:05.790Z,26.10
2023-10-16T20:30:33.983Z,26.10
2023-10-16T20:33:01.837Z,26.10
2023-10-16T20:35:30.362Z,26.10
2023-10-16T20:37:58.329Z,26.10
2023-10-16T20:40:27.599Z,26.10
2023-10-16T20:42:57.774Z,26.10
2023-10-16T20:45:26.965Z,26.10
2023-10-16T20:47:57.679Z,26.10
2023-10-16T20:50:28.649Z,26.10
2023-10-16T20:52:56.503Z,26.00
2023-10-16T20:55:24.586Z,26.00
2023-10-16T20:57:53.270Z,26.00
2023-10-16T21:00:27.003Z,26.00
2023-10-16T21:02:55.655Z,26.00
2023-10-16T21:05:31.281Z,26.00
2023-10-16T21:08:00.244Z,25.90
2023-10-16T21:10:29.366Z,25.90
2023-10-16T21:12:58.245Z,25.90
2023-10-16T21:15:26.232Z,25.90
2023-10-16T21:17:54.843Z,25.80
2023-10-16T21:20:22.959Z,25.80
2023-10-16T21:22:51.777Z,25.80
2023-10-16T21:25:21.108Z,25.80
2023-10-16T21:27:49.092Z,25.80
2023-10-16T21:30:23.092Z,25.70
2023-10-16T21:32:54.327Z,25.70
2023-10-16T21:35:26.398Z,25.70
2023-10-16T21:37:54.679Z,25.60
2023-10-16T21:40:25.297Z,25.60
2023-10-16T21:42:53.575Z,25.60
2023-10-16T21:45:23.671Z,25.60
2023-10-16T21:47:52.344Z,25.60
2023-10-16T21:50:21.308Z,25.50
2023-10-16T21:52:49.167Z,25.50
2023-10-16T21:55:17.350Z,25.50
2023-10-16T21:57:45.922Z,25.50
2023-10-16T22:00:16.633Z,25.40
2023-10-16T22:02:45.102Z,25.40
2023-10-16T22:05:13.933Z,25.40
2023-10-16T22:07:42.081Z,25.40
2023-10-16T22:10:14.883Z,25.30
2023-10-16T22:12:43.808Z,25.30
2023-10-16T22:15:12.179Z,25.30
2023-10-16T22:17:40.631Z,25.30
2023-10-16T22:20:12.987Z,25.20
2023-10-16T22:22:42.785Z,25.30
2023-10-16T22:25:12.466Z,25.20
2023-10-16T22:27:40.397Z,25.20
2023-10-16T22:30:08.548Z,25.20
2023-10-16T22:32:36.776Z,25.20
2023-10-16T22:35:06.375Z,25.20
2023-10-16T22:37:35.056Z,25.20
2023-10-16T22:40:09.825Z,25.20
2023-10-16T22:42:38.697Z,25.20
2023-10-16T22:45:06.837Z,25.10
2023-10-16T22:47:35.857Z,25.20
2023-10-16T22:50:04.651Z,25.10
2023-10-16T22:52:32.850Z,25.10
2023-10-16T22:55:00.920Z,25.10
2023-10-16T22:57:29.116Z,25.10
2023-10-16T23:00:00.344Z,25.10
2023-10-16T23:02:28.356Z,25.10
2023-10-16T23:04:57.119Z,25.10
2023-10-16T23:07:26.916Z,25.10
2023-10-16T23:09:57.292Z,25.10
2023-10-16T23:12:37.775Z,25.00
2023-10-16T23:15:19.559Z,25.00
2023-10-16T23:17:50.838Z,25.10
2023-10-16T23:20:18.688Z,25.00
2023-10-16T23:22:49.963Z,25.10
2023-10-16T23:25:21.945Z,25.00
2023-10-16T23:27:52.755Z,25.10
2023-10-16T23:30:23.542Z,25.00
2023-10-16T23:32:52.129Z,25.00
2023-10-16T23:35:23.259Z,25.10
2023-10-16T23:37:51.104Z,25.00
2023-10-16T23:40:34.445Z,25.00
2023-10-16T23:43:26.071Z,25.00
2023-10-16T23:45:53.900Z,25.10
2023-10-16T23:48:33.470Z,25.10
2023-10-16T23:51:15.107Z,25.10
2023-10-16T23:53:49.118Z,25.10
2023-10-16T23:56:21.313Z,25.10
2023-10-16T23:58:56.244Z,25.10
